Time;durP1;ratioP1;P1;durP2;ratioP2;P2;SDS_P1;SDS_P2;PMS_P1;PMS_P2;Temp;Humidity;BMP_temperature;BMP_pressure;BME280_temperature;BME280_humidity;BME280_pressure;Samples;Min_cycle;Max_cycle;Signal;HPM_P1;HPM_P2
2022/06/14 00:03:15;;;;;;;7.45;3.28;;;14.70;86.50;;;;;;5086317;28;20142;-73
2022/06/14 00:06:12;;;;;;;5.25;3.42;;;14.70;86.60;;;;;;5087241;28;20050;-74
2022/06/14 00:08:57;;;;;;;5.70;3.15;;;14.70;87.30;;;;;;5092106;28;20035;-74
2022/06/14 00:11:42;;;;;;;;;;;14.70;87.60;;;;;;5093204;28;20390;-74
2022/06/14 00:14:26;;;;;;;5.70;2.80;;;14.70;87.30;;;;;;5085899;28;19919;-75
2022/06/14 00:17:10;;;;;;;5.18;2.67;;;14.80;86.50;;;;;;5100627;28;20108;-75
2022/06/14 00:19:54;;;;;;;5.00;2.90;;;14.30;88.50;;;;;;5101042;28;20043;-75
2022/06/14 00:22:38;;;;;;;6.10;2.85;;;14.40;88.40;;;;;;5103050;28;20042;-74
2022/06/14 00:25:36;;;;;;;7.32;2.97;;;14.30;87.90;;;;;;5119712;28;20088;-74
2022/06/14 00:28:23;;;;;;;4.18;2.90;;;14.50;87.80;;;;;;5084329;28;20149;-74
2022/06/14 00:31:12;;;;;;;5.20;2.80;;;14.50;87.20;;;;;;5083271;28;20414;-75
2022/06/14 00:33:57;;;;;;;4.38;2.75;;;14.60;87.20;;;;;;5113430;28;20077;-75
2022/06/14 00:36:49;;;;;;;;;;;14.50;87.60;;;;;;5113364;28;20031;-74
2022/06/14 00:39:33;;;;;;;8.90;3.15;;;14.50;87.80;;;;;;5084342;28;19911;-75
2022/06/14 00:42:20;;;;;;;4.77;2.93;;;14.40;88.60;;;;;;5084880;28;20068;-73
2022/06/14 00:45:11;;;;;;;8.20;3.38;;;14.40;89.00;;;;;;5121767;28;20050;-75
2022/06/14 00:48:18;;;;;;;5.05;3.30;;;14.50;88.20;;;;;;5090330;28;20078;-76
2022/06/14 00:51:10;;;;;;;6.25;3.70;;;14.30;89.40;;;;;;5071983;28;20031;-75
2022/06/14 00:54:10;;;;;;;7.20;3.28;;;14.30;89.90;;;;;;5101977;28;20097;-73
2022/06/14 00:57:05;;;;;;;7.63;3.70;;;14.30;90.10;;;;;;5103219;28;20032;-73
2022/06/14 01:00:09;;;;;;;10.43;3.42;;;14.40;90.00;;;;;;5099977;28;20606;-74
2022/06/14 01:02:57;;;;;;;7.55;2.70;;;14.40;89.60;;;;;;5081947;28;20533;-74
2022/06/14 01:06:05;;;;;;;7.35;3.17;;;14.50;89.20;;;;;;5079082;28;20034;-73
2022/06/14 01:08:53;;;;;;;7.30;2.97;;;14.40;90.10;;;;;;5121574;28;20038;-74
2022/06/14 01:12:09;;;;;;;5.53;3.13;;;14.40;90.00;;;;;;5103748;28;20100;-73
2022/06/14 01:15:15;;;;;;;9.65;6.25;;;14.40;90.00;;;;;;5091737;28;20042;-75
2022/06/14 01:18:07;;;;;;;6.97;4.72;;;14.30;90.00;;;;;;5088445;28;20053;-75
2022/06/14 01:20:51;;;;;;;10.38;4.20;;;14.40;89.90;;;;;;5108704;28;20423;-74
2022/06/14 01:23:36;;;;;;;8.57;3.53;;;14.40;89.40;;;;;;5106286;28;20236;-73
2022/06/14 01:26:25;;;;;;;5.57;2.92;;;14.40;89.30;;;;;;5101276;28;20141;-73
2022/06/14 01:29:09;;;;;;;6.38;3.15;;;14.20;90.30;;;;;;5064077;28;20125;-73
2022/06/14 01:31:55;;;;;;;;;;;14.10;90.30;;;;;;5102885;28;20035;-75
2022/06/14 01:34:53;;;;;;;4.90;3.00;;;13.90;90.70;;;;;;5112023;28;19915;-76
2022/06/14 01:37:41;;;;;;;6.13;3.35;;;13.90;90.90;;;;;;5110844;28;20043;-74
2022/06/14 01:40:56;;;;;;;5.78;3.50;;;14.00;90.50;;;;;;5104399;28;20027;-76
2022/06/14 01:44:02;;;;;;;7.53;3.80;;;13.80;91.10;;;;;;5104122;28;20125;-77
2022/06/14 01:47:05;;;;;;;6.18;3.72;;;13.80;91.20;;;;;;5107366;28;20030;-75
2022/06/14 01:53:47;;;;;;;7.15;3.45;;;13.50;91.60;;;;;;5101276;28;20031;-75
2022/06/14 01:56:49;;;;;;;11.02;3.88;;;13.40;92.30;;;;;;5103033;28;20049;-74
2022/06/14 01:59:49;;;;;;;10.50;4.35;;;13.30;92.30;;;;;;5090365;28;20130;-76
2022/06/14 02:02:39;;;;;;;9.35;4.40;;;13.30;92.60;;;;;;5105772;28;20035;-74
2022/06/14 02:05:29;;;;;;;6.10;3.30;;;13.40;92.30;;;;;;5084657;28;20038;-74
2022/06/14 02:08:19;;;;;;;10.40;4.55;;;13.50;92.20;;;;;;5096157;28;20034;-73
2022/06/14 02:11:03;;;;;;;6.15;3.47;;;13.40;92.30;;;;;;5106243;28;20394;-73
2022/06/14 02:13:53;;;;;;;9.23;3.40;;;13.40;92.30;;;;;;5106999;28;20145;-74
2022/06/14 02:17:04;;;;;;;9.75;3.40;;;13.50;92.00;;;;;;5093047;28;20085;-74
2022/06/14 02:19:57;;;;;;;7.10;4.00;;;13.30;92.40;;;;;;5102658;28;20059;-73
2022/06/14 02:22:49;;;;;;;8.02;3.50;;;13.30;92.40;;;;;;5088411;28;20027;-76
2022/06/14 02:25:57;;;;;;;6.13;3.50;;;13.30;92.40;;;;;;5104629;28;20032;-73
2022/06/14 02:28:53;;;;;;;6.20;3.92;;;13.30;92.50;;;;;;5085294;28;20035;-75
2022/06/14 02:32:13;;;;;;;6.32;3.40;;;13.20;92.60;;;;;;5123235;28;20026;-75
2022/06/14 02:35:00;;;;;;;5.72;3.70;;;13.30;92.40;;;;;;5103017;28;20031;-74
2022/06/14 02:37:53;;;;;;;9.05;3.72;;;13.30;92.70;;;;;;5124588;28;20039;-73
2022/06/14 02:40:42;;;;;;;8.02;3.70;;;13.30;92.80;;;;;;5103394;28;20100;-75
2022/06/14 02:43:44;;;;;;;6.43;2.90;;;13.20;92.60;;;;;;5084599;28;20038;-75
2022/06/14 02:46:34;;;;;;;6.75;3.63;;;13.30;92.50;;;;;;5102231;28;20039;-76
2022/06/14 02:49:36;;;;;;;6.38;3.42;;;13.30;92.60;;;;;;5085863;28;20035;-75
2022/06/14 02:52:45;;;;;;;5.18;3.08;;;13.40;92.70;;;;;;5099936;28;20054;-74
2022/06/14 02:55:43;;;;;;;7.43;3.75;;;13.40;93.10;;;;;;5101187;28;20152;-76
2022/06/14 02:58:32;;;;;;;5.28;3.75;;;13.40;93.10;;;;;;5075865;28;20505;-74
2022/06/14 03:01:27;;;;;;;8.05;3.72;;;13.50;93.00;;;;;;5081910;28;20438;-75
2022/06/14 03:04:21;;;;;;;4.72;3.53;;;13.50;92.90;;;;;;5110538;28;20496;-75
2022/06/14 03:07:27;;;;;;;6.60;3.60;;;13.50;92.90;;;;;;5100372;28;20039;-75
2022/06/14 03:10:12;;;;;;;5.55;3.35;;;13.60;92.80;;;;;;5080291;28;20670;-75
2022/06/14 03:13:10;;;;;;;4.93;3.53;;;13.60;92.90;;;;;;5080963;28;20047;-74
2022/06/14 03:16:19;;;;;;;6.20;3.78;;;13.60;93.00;;;;;;5106419;28;20075;-74
2022/06/14 03:19:24;;;;;;;6.85;3.60;;;13.60;92.90;;;;;;5119832;28;20022;-73
2022/06/14 03:22:24;;;;;;;6.70;3.50;;;13.60;93.20;;;;;;5107502;28;20172;-74
2022/06/14 03:25:17;;;;;;;8.32;3.72;;;13.60;93.30;;;;;;5102786;28;20039;-75
2022/06/14 03:28:21;;;;;;;7.60;3.78;;;13.50;93.30;;;;;;5095823;28;20046;-74
2022/06/14 03:31:31;;;;;;;7.07;3.45;;;13.30;93.70;;;;;;5085454;28;20026;-74
2022/06/14 03:34:22;;;;;;;8.73;3.67;;;13.30;94.10;;;;;;5115161;28;20050;-75
2022/06/14 03:37:08;;;;;;;7.57;3.50;;;13.40;94.10;;;;;;5106982;28;20045;-74
2022/06/14 03:39:58;;;;;;;8.32;3.97;;;13.50;93.90;;;;;;5103449;28;20089;-74
2022/06/14 03:42:43;;;;;;;5.40;3.83;;;13.50;93.40;;;;;;5103080;28;20454;-74
2022/06/14 03:45:51;;;;;;;8.15;3.67;;;13.50;93.80;;;;;;5071493;28;20043;-74
2022/06/14 03:48:38;;;;;;;10.05;3.70;;;13.60;93.50;;;;;;5106719;28;20406;-75
2022/06/14 03:51:31;;;;;;;8.30;3.75;;;13.40;93.90;;;;;;5121763;28;20090;-73
2022/06/14 03:54:26;;;;;;;9.25;4.43;;;13.50;94.10;;;;;;5120959;28;20535;-74
2022/06/14 03:57:45;;;;;;;9.80;3.60;;;13.50;93.70;;;;;;5120132;28;20100;-74
2022/06/14 04:00:49;;;;;;;8.30;3.60;;;13.30;93.90;;;;;;5122278;28;20030;-74
2022/06/14 04:04:14;;;;;;;11.73;4.55;;;13.60;93.00;;;;;;5100587;28;20058;-73
2022/06/14 04:07:41;;;;;;;7.60;4.00;;;13.40;93.60;;;;;;5095660;28;20026;-73
2022/06/14 04:10:35;;;;;;;8.63;4.97;;;13.30;94.10;;;;;;5088205;28;20540;-73
2022/06/14 04:13:47;;;;;;;7.13;3.80;;;13.20;94.00;;;;;;5085704;28;20031;-75
2022/06/14 04:16:58;;;;;;;8.30;3.97;;;13.00;95.20;;;;;;5084874;28;20031;-75
2022/06/14 04:20:08;;;;;;;7.78;4.78;;;13.10;95.00;;;;;;5103662;28;20031;-73
2022/06/14 04:22:57;;;;;;;9.40;4.35;;;12.90;95.80;;;;;;5121539;28;20402;-73
2022/06/14 04:25:55;;;;;;;5.75;4.00;;;12.90;96.10;;;;;;5104728;28;20050;-75
2022/06/14 04:28:51;;;;;;;6.50;4.07;;;13.00;96.00;;;;;;5101147;28;20046;-73
2022/06/14 04:31:47;;;;;;;5.93;3.47;;;13.20;95.80;;;;;;5117958;28;20062;-74
2022/06/14 04:34:41;;;;;;;6.30;3.58;;;13.40;95.40;;;;;;5101247;28;20026;-73
2022/06/14 04:37:27;;;;;;;5.97;3.85;;;13.60;94.90;;;;;;5085548;28;20031;-75
2022/06/14 04:40:37;;;;;;;6.50;3.42;;;13.70;93.80;;;;;;5103022;28;20032;-74
2022/06/14 04:43:29;;;;;;;8.38;3.83;;;13.70;93.70;;;;;;5096642;28;20042;-74
2022/06/14 04:46:26;;;;;;;10.55;4.43;;;13.80;93.90;;;;;;5098853;28;20030;-75
2022/06/14 04:49:25;;;;;;;7.60;3.60;;;13.90;93.70;;;;;;5122456;28;20037;-75
2022/06/14 04:52:22;;;;;;;6.20;3.28;;;13.90;93.20;;;;;;5109880;28;20505;-75
2022/06/14 04:55:13;;;;;;;6.65;3.63;;;14.10;92.60;;;;;;5093666;28;20605;-75
2022/06/14 04:58:14;;;;;;;9.95;5.30;;;14.00;92.70;;;;;;5085990;28;20040;-76
2022/06/14 05:01:07;;;;;;;9.07;3.72;;;13.90;93.20;;;;;;5107133;28;20533;-77
2022/06/14 05:04:18;;;;;;;6.95;3.75;;;14.10;92.50;;;;;;5088771;28;20046;-74
2022/06/14 05:07:16;;;;;;;10.55;4.50;;;14.20;92.00;;;;;;5083186;28;20134;-74
2022/06/14 05:10:05;;;;;;;7.40;3.63;;;14.30;92.20;;;;;;5087672;28;20038;-75
2022/06/14 05:12:52;;;;;;;10.13;4.50;;;14.10;92.20;;;;;;5093515;28;20038;-75
2022/06/14 05:15:39;;;;;;;8.93;3.83;;;14.10;92.10;;;;;;5105453;28;20041;-76
2022/06/14 05:18:49;;;;;;;10.07;4.88;;;14.20;91.90;;;;;;5123999;28;20093;-75
2022/06/14 05:21:46;;;;;;;7.03;3.75;;;14.20;92.10;;;;;;5107154;28;20039;-75
2022/06/14 05:24:35;;;;;;;9.13;5.65;;;14.20;92.20;;;;;;5093201;28;20043;-74
2022/06/14 05:27:47;;;;;;;6.85;4.00;;;14.40;92.10;;;;;;5104789;28;20046;-75
2022/06/14 05:31:26;;;;;;;8.18;3.75;;;14.50;91.90;;;;;;5105937;28;20031;-74
2022/06/14 05:34:52;;;;;;;11.15;5.70;;;14.50;91.80;;;;;;5077892;28;20391;-74
2022/06/14 05:37:51;;;;;;;11.93;5.20;;;14.60;91.20;;;;;;5089725;28;20173;-74
2022/06/14 05:41:12;;;;;;;6.45;3.58;;;14.70;91.10;;;;;;5088805;28;20039;-76
2022/06/14 05:44:10;;;;;;;8.50;4.15;;;14.60;91.40;;;;;;5113530;28;20042;-75
2022/06/14 05:46:58;;;;;;;8.40;4.13;;;14.70;91.40;;;;;;5109642;28;20058;-77
2022/06/14 05:49:45;;;;;;;9.88;4.30;;;15.00;91.00;;;;;;5110273;28;20133;-75
2022/06/14 05:52:56;;;;;;;9.93;4.38;;;15.20;90.80;;;;;;5126458;28;20131;-74
2022/06/14 05:55:58;;;;;;;5.57;3.40;;;15.20;90.40;;;;;;5116010;28;20032;-75
2022/06/14 05:59:13;;;;;;;10.88;3.70;;;15.30;90.10;;;;;;5089203;28;20680;-75
2022/06/14 06:02:03;;;;;;;8.07;3.67;;;15.30;87.80;;;;;;5109324;28;20100;-75
2022/06/14 06:04:53;;;;;;;9.15;3.78;;;15.30;88.20;;;;;;5086715;28;20046;-74
2022/06/14 06:07:42;;;;;;;8.55;3.90;;;15.00;89.10;;;;;;5086828;28;20085;-75
2022/06/14 06:10:41;;;;;;;8.18;3.60;;;15.30;88.20;;;;;;5084814;28;20050;-74
2022/06/14 06:13:33;;;;;;;8.77;3.33;;;15.20;88.00;;;;;;5103063;28;20034;-75
2022/06/14 06:19:46;;;;;;;7.95;2.90;;;15.40;88.80;;;;;;5120072;28;20035;-75
2022/06/14 06:22:53;;;;;;;7.60;3.58;;;15.50;88.80;;;;;;5120878;28;20043;-74
2022/06/14 06:25:42;;;;;;;10.35;5.78;;;15.60;88.30;;;;;;5094313;28;20077;-75
2022/06/14 06:28:34;;;;;;;5.75;2.90;;;15.30;89.20;;;;;;5106400;28;20062;-75
2022/06/14 06:31:27;;;;;;;6.93;3.40;;;15.20;88.60;;;;;;5097359;28;20050;-76
2022/06/14 06:34:18;;;;;;;12.07;3.90;;;15.40;88.00;;;;;;5109494;28;20046;-76
2022/06/14 06:37:11;;;;;;;13.93;4.75;;;15.40;88.00;;;;;;5100485;28;20121;-75
2022/06/14 06:40:05;;;;;;;8.30;4.25;;;15.50;87.90;;;;;;5105476;28;20093;-75
2022/06/14 06:43:15;;;;;;;6.80;4.07;;;15.50;88.30;;;;;;5104649;28;20105;-74
2022/06/14 06:46:05;;;;;;;7.65;4.10;;;15.90;86.30;;;;;;5087526;28;20070;-76
2022/06/14 06:48:57;;;;;;;6.88;3.88;;;15.90;86.40;;;;;;5086536;28;20036;-76
2022/06/14 06:51:51;;;;;;;4.90;3.15;;;15.90;86.20;;;;;;5103562;28;20186;-74
2022/06/14 06:54:49;;;;;;;8.60;4.50;;;15.80;85.00;;;;;;5090304;28;20038;-73
2022/06/14 06:57:35;;;;;;;5.88;3.45;;;15.70;85.20;;;;;;5117455;28;20077;-73
2022/06/14 07:00:21;;;;;;;10.10;3.35;;;16.00;85.00;;;;;;5088743;28;20096;-73
2022/06/14 07:03:20;;;;;;;7.32;3.17;;;16.10;84.70;;;;;;5085129;28;20051;-73
2022/06/14 07:06:34;;;;;;;5.07;3.33;;;16.10;85.20;;;;;;5104955;28;20046;-74
2022/06/14 07:09:42;;;;;;;8.63;3.55;;;16.00;85.00;;;;;;5101416;28;20068;-73
2022/06/14 07:12:37;;;;;;;7.50;3.42;;;16.20;84.90;;;;;;5099742;28;20042;-73
2022/06/14 07:15:30;;;;;;;9.00;3.40;;;16.30;84.10;;;;;;5077949;28;20054;-74
2022/06/14 07:18:19;;;;;;;8.48;3.20;;;16.40;85.20;;;;;;5105251;28;20069;-76
2022/06/14 07:21:11;;;;;;;8.57;3.35;;;16.50;83.10;;;;;;5102705;28;20043;-75
2022/06/14 07:24:08;;;;;;;10.15;3.35;;;16.60;83.30;;;;;;5075342;28;20088;-73
2022/06/14 07:27:19;;;;;;;9.85;4.30;;;16.60;83.40;;;;;;5104781;28;20708;-75
2022/06/14 07:30:21;;;;;;;5.15;2.90;;;16.70;83.40;;;;;;5104959;28;20043;-75
2022/06/14 07:33:06;;;;;;;6.43;3.47;;;16.70;84.00;;;;;;5104730;28;20038;-73
2022/06/14 07:36:00;;;;;;;5.88;2.78;;;16.70;84.60;;;;;;5099473;28;20043;-74
2022/06/14 07:39:10;;;;;;;9.00;3.40;;;16.60;85.30;;;;;;5104044;28;20042;-74
2022/06/14 07:42:07;;;;;;;13.10;3.70;;;16.60;84.70;;;;;;5100373;28;20058;-74
2022/06/14 07:45:13;;;;;;;16.58;7.75;;;16.40;86.00;;;;;;5099986;28;20092;-73
2022/06/14 07:48:24;;;;;;;8.93;3.50;;;16.50;86.00;;;;;;5098055;28;20053;-74
2022/06/14 07:51:12;;;;;;;9.20;3.70;;;16.40;86.20;;;;;;5118389;28;20155;-72
2022/06/14 07:54:21;;;;;;;12.70;3.60;;;16.30;85.50;;;;;;5101125;28;20055;-75
2022/06/14 07:57:08;;;;;;;7.50;3.42;;;16.40;85.90;;;;;;5099361;28;20053;-74
2022/06/14 07:59:55;;;;;;;7.63;3.53;;;16.40;85.40;;;;;;5100073;28;20399;-72
2022/06/14 08:02:41;;;;;;;5.97;3.33;;;16.70;85.20;;;;;;5089204;28;20120;-73
2022/06/14 08:05:32;;;;;;;11.27;3.63;;;16.70;84.60;;;;;;5088768;28;20406;-74
2022/06/14 08:08:29;;;;;;;11.85;3.60;;;16.90;84.30;;;;;;5102688;28;20076;-74
2022/06/14 08:11:37;;;;;;;8.35;3.60;;;16.80;85.70;;;;;;5101100;28;20047;-74
2022/06/14 08:14:50;;;;;;;8.95;3.45;;;17.20;84.80;;;;;;5098011;28;20043;-73
2022/06/14 08:17:45;;;;;;;10.25;3.92;;;17.70;82.90;;;;;;5098130;28;20070;-73
2022/06/14 08:20:57;;;;;;;12.45;4.38;;;17.90;81.70;;;;;;5110274;28;20104;-72
2022/06/14 08:23:58;;;;;;;9.65;3.30;;;17.80;81.70;;;;;;5102686;28;20493;-74
2022/06/14 08:26:45;;;;;;;8.20;3.17;;;17.50;82.60;;;;;;5118715;28;20603;-74
2022/06/14 08:29:35;;;;;;;6.75;3.40;;;17.40;82.80;;;;;;5117941;28;20087;-73
2022/06/14 08:32:53;;;;;;;7.45;3.60;;;17.30;81.50;;;;;;5118803;28;20038;-73
2022/06/14 08:35:43;;;;;;;5.97;3.00;;;17.40;82.10;;;;;;5120219;28;20093;-73
2022/06/14 08:38:54;;;;;;;9.77;3.22;;;17.80;81.00;;;;;;5088231;28;20045;-74
2022/06/14 08:42:09;;;;;;;6.07;2.92;;;18.00;77.90;;;;;;5117778;28;20501;-74
2022/06/14 08:45:16;;;;;;;9.50;3.30;;;18.00;78.30;;;;;;5102476;28;20063;-74
2022/06/14 08:48:00;;;;;;;7.68;2.80;;;17.90;79.60;;;;;;5073358;28;20047;-73
2022/06/14 08:51:11;;;;;;;11.60;3.30;;;17.70;78.50;;;;;;5103641;28;20386;-74
2022/06/14 08:54:32;;;;;;;16.80;3.83;;;17.80;80.00;;;;;;5087300;28;20039;-73
2022/06/14 08:57:42;;;;;;;8.95;3.90;;;17.40;81.50;;;;;;5113660;28;20046;-75
2022/06/14 09:00:41;;;;;;;9.65;3.58;;;17.30;82.10;;;;;;5086250;28;20066;-74
2022/06/14 09:03:41;;;;;;;11.93;3.67;;;17.30;81.70;;;;;;5123118;28;20093;-75
2022/06/14 09:06:43;;;;;;;9.63;3.65;;;17.60;81.10;;;;;;5109099;28;20061;-74
2022/06/14 09:10:02;;;;;;;7.78;3.40;;;18.20;79.20;;;;;;5109553;28;20059;-75
2022/06/14 09:13:06;;;;;;;9.45;3.75;;;18.20;78.80;;;;;;5105858;28;20083;-74
2022/06/14 09:16:27;;;;;;;7.82;3.10;;;17.90;80.50;;;;;;5102870;28;20035;-74
2022/06/14 09:19:40;;;;;;;6.22;3.25;;;17.70;79.50;;;;;;5104325;28;20030;-74
2022/06/14 09:22:35;;;;;;;5.80;3.30;;;17.70;78.70;;;;;;5095667;28;20085;-74
2022/06/14 09:25:47;;;;;;;12.45;3.55;;;18.40;77.20;;;;;;5122597;28;20047;-74
2022/06/14 09:28:54;;;;;;;8.95;3.53;;;18.60;75.50;;;;;;5121815;28;20144;-74
2022/06/14 09:32:00;;;;;;;6.88;3.15;;;18.70;75.80;;;;;;5123471;28;20402;-73
2022/06/14 09:34:51;;;;;;;9.45;3.55;;;18.50;77.50;;;;;;5122951;28;20035;-73
2022/06/14 09:38:04;;;;;;;10.93;3.50;;;18.10;78.60;;;;;;5100939;28;20085;-74
2022/06/14 09:41:01;;;;;;;13.68;3.90;;;18.20;78.90;;;;;;5096857;28;20058;-73
2022/06/14 09:43:59;;;;;;;14.82;4.20;;;18.30;77.70;;;;;;5110728;28;20110;-74
2022/06/14 09:47:05;;;;;;;15.23;4.15;;;18.20;78.40;;;;;;5090327;28;20096;-74
2022/06/14 09:50:08;;;;;;;19.48;4.50;;;18.30;78.60;;;;;;5091266;28;20085;-73
2022/06/14 09:53:24;;;;;;;7.75;3.20;;;18.10;79.30;;;;;;5091551;28;20112;-74
2022/06/14 09:56:20;;;;;;;9.38;4.05;;;18.40;77.80;;;;;;5097343;28;20027;-75
2022/06/14 09:59:34;;;;;;;15.40;4.22;;;18.50;75.30;;;;;;5085794;28;20039;-75
2022/06/14 10:02:35;;;;;;;7.28;3.75;;;18.40;76.90;;;;;;5101110;28;20073;-74
2022/06/14 10:05:22;;;;;;;8.18;4.35;;;18.30;78.20;;;;;;5103616;28;20343;-74
2022/06/14 10:08:29;;;;;;;7.55;3.42;;;18.60;77.40;;;;;;5101808;28;20035;-75
2022/06/14 10:11:29;;;;;;;10.30;4.05;;;19.00;77.10;;;;;;5088750;28;20545;-75
2022/06/14 10:14:54;;;;;;;8.48;3.90;;;18.90;77.20;;;;;;5087699;28;20031;-73
2022/06/14 10:18:13;;;;;;;9.18;3.40;;;19.00;76.20;;;;;;5109446;28;20031;-74
2022/06/14 10:21:01;;;;;;;14.20;4.05;;;19.20;75.20;;;;;;5108982;28;20533;-75
2022/06/14 10:24:00;;;;;;;9.82;3.53;;;19.20;74.90;;;;;;5094181;28;20066;-75
2022/06/14 10:31:07;;;;;;;6.15;3.28;;;19.20;73.50;;;;;;5119906;28;20038;-73
2022/06/14 10:33:59;;;;;;;6.75;3.35;;;19.40;72.20;;;;;;5098322;28;20431;-74
2022/06/14 10:36:55;;;;;;;8.77;3.75;;;19.50;71.80;;;;;;5080967;28;20135;-74
2022/06/14 10:39:52;;;;;;;8.45;3.78;;;19.70;72.10;;;;;;5081721;28;20023;-74
2022/06/14 10:42:57;;;;;;;13.82;4.10;;;19.60;71.00;;;;;;5085078;28;20031;-72
2022/06/14 10:45:54;;;;;;;8.65;3.67;;;19.80;71.60;;;;;;5105399;28;20060;-73
2022/06/14 10:48:47;;;;;;;10.00;4.10;;;20.00;70.60;;;;;;5122085;28;20081;-75
2022/06/14 10:51:58;;;;;;;10.65;4.97;;;19.90;70.70;;;;;;5106310;28;20031;-73
2022/06/14 10:55:13;;;;;;;8.25;3.78;;;20.00;71.30;;;;;;5116916;28;20506;-72
2022/06/14 10:58:28;;;;;;;9.13;3.90;;;19.50;72.00;;;;;;5099478;28;20081;-74
2022/06/14 11:01:18;;;;;;;7.28;3.33;;;19.60;71.00;;;;;;5085031;28;20063;-73
2022/06/14 11:04:15;;;;;;;8.38;3.70;;;19.80;70.80;;;;;;5093388;28;20081;-73
2022/06/14 11:07:25;;;;;;;12.35;3.92;;;20.10;70.90;;;;;;5115506;28;20089;-73
2022/06/14 11:10:39;;;;;;;7.90;4.00;;;20.20;70.50;;;;;;5100194;28;20080;-74
2022/06/14 11:13:32;;;;;;;7.93;3.88;;;20.40;70.90;;;;;;5089453;28;20045;-74
2022/06/14 11:17:08;;;;;;;8.40;3.55;;;20.30;68.90;;;;;;5117361;28;20083;-73
2022/06/14 11:20:18;;;;;;;8.50;3.47;;;19.90;69.30;;;;;;5096043;28;20129;-75
2022/06/14 11:23:18;;;;;;;7.72;3.13;;;19.60;70.10;;;;;;5094551;28;20059;-76
2022/06/14 11:26:19;;;;;;;6.53;3.28;;;19.70;70.40;;;;;;5079825;28;20509;-74
2022/06/14 11:29:20;;;;;;;9.27;3.35;;;20.00;69.80;;;;;;5100878;28;20035;-73
2022/06/14 11:32:31;;;;;;;12.60;3.80;;;20.30;70.10;;;;;;5114978;28;20054;-73
2022/06/14 11:35:40;;;;;;;6.93;3.25;;;20.80;68.30;;;;;;5084461;28;20035;-73
2022/06/14 11:38:36;;;;;;;8.40;3.75;;;21.10;67.40;;;;;;5096892;28;20035;-74
2022/06/14 11:41:24;;;;;;;5.05;3.00;;;20.90;66.00;;;;;;5096243;28;20062;-74
2022/06/14 11:44:26;;;;;;;9.43;3.60;;;20.70;67.80;;;;;;5114174;28;20135;-74
2022/06/14 11:47:42;;;;;;;6.38;3.25;;;20.20;68.60;;;;;;5118375;28;20026;-74
2022/06/14 11:51:08;;;;;;;5.13;2.83;;;20.30;68.70;;;;;;5105485;28;20035;-73
2022/06/14 11:54:11;;;;;;;6.75;3.30;;;20.40;67.40;;;;;;5120834;28;20076;-74
2022/06/14 11:57:26;;;;;;;6.35;3.25;;;20.40;66.30;;;;;;5097731;28;20047;-74
2022/06/14 12:00:35;;;;;;;7.50;3.22;;;20.70;66.50;;;;;;5098592;28;20031;-74
2022/06/14 12:03:44;;;;;;;9.55;3.63;;;20.80;68.00;;;;;;5097408;28;20031;-73
2022/06/14 12:06:38;;;;;;;5.50;3.05;;;21.20;67.70;;;;;;5097401;28;20035;-74
2022/06/14 12:10:01;;;;;;;11.40;3.30;;;21.30;65.80;;;;;;5099030;28;20023;-75
2022/06/14 12:13:05;;;;;;;10.82;3.50;;;21.30;66.00;;;;;;5099987;28;20042;-74
2022/06/14 12:15:50;;;;;;;7.35;3.35;;;21.20;66.20;;;;;;5100916;28;20081;-76
2022/06/14 12:18:38;;;;;;;10.00;3.78;;;21.00;66.50;;;;;;5099802;28;20057;-75
2022/06/14 12:21:59;;;;;;;12.63;6.07;;;21.10;66.20;;;;;;5083539;28;20081;-75
2022/06/14 12:27:51;;;;;;;9.27;3.25;;;21.30;66.30;;;;;;5099995;28;20398;-74
2022/06/14 12:30:37;;;;;;;5.13;3.25;;;21.70;66.50;;;;;;5098718;28;20026;-75
2022/06/14 12:33:37;;;;;;;6.53;3.05;;;22.00;65.80;;;;;;5097311;28;20034;-75
2022/06/14 12:36:40;;;;;;;7.80;3.13;;;21.90;64.70;;;;;;5096806;28;20046;-76
2022/06/14 12:39:34;;;;;;;7.35;3.13;;;21.70;64.00;;;;;;5096712;28;20031;-75
2022/06/14 12:42:31;;;;;;;8.60;3.15;;;21.70;64.90;;;;;;5097292;28;20066;-74
2022/06/14 12:45:24;;;;;;;5.30;3.13;;;21.80;64.60;;;;;;5098671;28;20135;-74
2022/06/14 12:48:46;;;;;;;5.55;2.90;;;21.80;64.40;;;;;;5099019;28;20035;-75
2022/06/14 12:51:45;;;;;;;5.70;2.70;;;21.70;63.90;;;;;;5077632;28;20074;-74
2022/06/14 12:54:47;;;;;;;6.75;3.13;;;22.00;62.80;;;;;;5098525;28;20551;-75
2022/06/14 12:58:04;;;;;;;6.75;3.33;;;22.40;62.30;;;;;;5091189;28;20039;-74
2022/06/14 13:00:54;;;;;;;8.50;2.92;;;22.50;62.70;;;;;;5080418;28;20097;-73
2022/06/14 13:03:48;;;;;;;5.90;3.60;;;22.40;62.40;;;;;;5100695;28;20031;-74
2022/06/14 13:07:00;;;;;;;5.68;3.08;;;22.40;63.00;;;;;;5083648;28;20160;-74
2022/06/14 13:10:07;;;;;;;8.68;2.90;;;22.60;64.20;;;;;;5086421;28;20068;-75
2022/06/14 13:13:00;;;;;;;9.88;3.17;;;22.50;63.50;;;;;;5110215;28;20066;-74
2022/06/14 13:15:57;;;;;;;8.85;3.38;;;22.30;63.80;;;;;;5090361;28;20059;-74
2022/06/14 13:19:13;;;;;;;6.78;2.83;;;22.70;64.40;;;;;;5111702;28;20027;-74
2022/06/14 13:22:22;;;;;;;6.38;2.97;;;23.20;61.90;;;;;;5089896;28;20128;-75
2022/06/14 13:25:32;;;;;;;8.23;2.78;;;23.30;62.10;;;;;;5111062;28;20059;-74
2022/06/14 13:28:19;;;;;;;7.13;2.63;;;23.50;62.70;;;;;;5094623;28;20034;-74
2022/06/14 13:31:26;;;;;;;7.85;2.83;;;23.50;61.40;;;;;;5094453;28;20396;-74
2022/06/14 13:34:21;;;;;;;5.93;2.70;;;23.20;62.50;;;;;;5108724;28;20027;-75
2022/06/14 13:37:29;;;;;;;7.55;2.88;;;22.80;62.70;;;;;;5107583;28;20019;-74
2022/06/14 13:40:13;;;;;;;6.05;2.80;;;22.70;62.60;;;;;;5111064;28;20035;-76
2022/06/14 13:43:19;;;;;;;5.05;2.55;;;22.90;62.40;;;;;;5109738;28;20084;-75
2022/06/14 13:46:08;;;;;;;5.20;3.53;;;23.30;63.10;;;;;;5096097;28;20062;-75
2022/06/14 13:49:15;;;;;;;4.07;2.78;;;23.70;61.60;;;;;;5097326;28;20022;-76
2022/06/14 13:52:21;;;;;;;7.97;3.45;;;24.20;62.50;;;;;;5091887;28;20073;-75
2022/06/14 13:55:14;;;;;;;7.97;3.25;;;24.60;60.40;;;;;;5104838;28;20128;-74
2022/06/14 13:58:15;;;;;;;3.37;2.70;;;24.70;58.70;;;;;;5110869;28;20024;-73
2022/06/14 14:01:13;;;;;;;5.03;3.00;;;24.50;58.80;;;;;;5107472;28;20257;-78
2022/06/14 14:04:05;;;;;;;5.95;3.00;;;24.30;59.30;;;;;;5101473;28;20024;-74
2022/06/14 14:07:10;;;;;;;7.68;3.30;;;24.30;59.60;;;;;;5085302;28;20504;-74
2022/06/14 14:10:23;;;;;;;3.85;2.50;;;24.10;58.30;;;;;;5100139;28;20098;-74
2022/06/14 14:13:24;;;;;;;6.82;2.50;;;24.50;57.80;;;;;;5107423;28;20119;-76
2022/06/14 14:16:18;;;;;;;6.80;3.40;;;24.40;57.90;;;;;;5091779;28;20096;-74
2022/06/14 14:19:33;;;;;;;6.25;3.13;;;24.70;58.00;;;;;;5111378;28;20437;-76
2022/06/14 14:22:36;;;;;;;6.50;3.00;;;24.50;58.00;;;;;;5117400;28;20165;-74
2022/06/14 14:25:28;;;;;;;8.52;3.58;;;24.60;58.00;;;;;;5091892;28;20069;-76
2022/06/14 14:28:12;;;;;;;5.57;2.75;;;24.80;57.50;;;;;;5094599;28;20043;-76
2022/06/14 14:31:03;;;;;;;7.97;3.15;;;25.00;56.70;;;;;;5111922;28;20101;-74
2022/06/14 14:33:55;;;;;;;4.50;2.50;;;25.00;56.60;;;;;;5097896;28;20030;-75
2022/06/14 14:36:59;;;;;;;8.38;2.90;;;25.20;56.20;;;;;;5101898;28;20031;-76
2022/06/14 14:40:11;;;;;;;6.32;3.00;;;25.40;56.90;;;;;;5096580;28;20383;-74
2022/06/14 14:42:59;;;;;;;7.05;3.10;;;25.80;56.90;;;;;;5098968;28;20046;-79
2022/06/14 14:45:52;;;;;;;5.28;2.70;;;26.40;56.50;;;;;;5115182;28;20039;-77
2022/06/14 14:48:54;;;;;;;5.57;2.83;;;26.60;55.50;;;;;;5099055;28;20028;-77
2022/06/14 14:51:52;;;;;;;5.68;2.80;;;26.80;54.90;;;;;;5101421;28;20509;-76
2022/06/14 14:55:14;;;;;;;4.85;2.95;;;26.90;53.80;;;;;;5107376;28;20069;-78
2022/06/14 14:58:24;;;;;;;5.22;3.03;;;26.30;54.30;;;;;;5108588;28;20061;-78
2022/06/14 15:08:11;;;;;;;5.88;2.90;;;26.10;54.80;;;;;;5097973;28;20543;-78
2022/06/14 15:11:18;;;;;;;4.38;3.10;;;26.10;54.90;;;;;;5089939;28;20069;-78
2022/06/14 15:14:16;;;;;;;6.57;3.22;;;26.00;55.10;;;;;;5104693;28;20114;-74
2022/06/14 15:20:13;;;;;;;4.80;3.28;;;26.80;54.10;;;;;;5104291;28;20045;-74
2022/06/14 15:22:58;;;;;;;5.03;2.55;;;26.90;54.00;;;;;;5096572;28;20050;-76
2022/06/14 15:25:43;;;;;;;5.40;2.78;;;26.70;53.90;;;;;;5107167;28;20039;-75
2022/06/14 15:28:58;;;;;;;6.07;2.78;;;26.40;54.30;;;;;;5078881;28;20046;-75
2022/06/14 15:32:00;;;;;;;4.68;2.65;;;26.10;54.00;;;;;;5104967;28;20112;-75
2022/06/14 15:34:51;;;;;;;5.47;2.80;;;26.20;54.70;;;;;;5080050;28;20143;-75
2022/06/14 15:37:43;;;;;;;5.00;2.60;;;26.30;54.40;;;;;;5099394;28;20050;-75
2022/06/14 15:40:27;;;;;;;6.43;2.83;;;26.00;54.00;;;;;;5086712;28;20390;-73
2022/06/14 15:43:31;;;;;;;5.57;2.80;;;26.10;54.60;;;;;;5107200;28;20054;-75
2022/06/14 15:46:24;;;;;;;5.68;2.47;;;26.50;54.30;;;;;;5099308;28;20096;-76
2022/06/14 15:49:14;;;;;;;6.15;3.10;;;26.80;53.50;;;;;;5090003;28;20046;-74
2022/06/14 15:52:06;;;;;;;6.18;3.08;;;26.50;54.40;;;;;;5101968;28;20027;-75
2022/06/14 15:55:23;;;;;;;8.00;4.10;;;27.30;53.80;;;;;;5107108;28;20027;-74
2022/06/14 15:58:35;;;;;;;7.22;2.92;;;27.50;52.10;;;;;;5092419;28;20108;-76